Sawyer William — WDD9255 — position and weather

sailwx.info

Track history (hours):
 
Tides and Currents Weather Stations Pressure Air Temp Water Temp Dewpoint Dewpoint Depression Visibility Wind Speed Wind Dir Waves Ship Positions

Sawyer William

Owner: Florida Marine, LLC, Mandeville, LA. More information available from US FCC via Universal Licensing System and Coast Guard Vessel Documentation Center.

Last reported at 2017-Dec-16 22:34 UTC. Time now 2017-Dec-17 02:46 UTC.
Position N 29°46' W 095°05'.

Length 27 m; draft 2.9 m.

Type: Other ship. MMSI: 367308990.

Date/timePositionNaut miles runAvg speedWind from/ knotsBaromVisibWave heightAir tempDewpointWater temp
2017-Dec-16 22:34N 29°46' W 095°05'1 6.3
2017-Dec-16 22:22N 29°45' W 095°04'3 4.8
2017-Dec-16 21:47N 29°43' W 095°01'2 5.6
2017-Dec-16 21:28N 29°42' W 094°60'4 6.5
2017-Dec-16 20:53N 29°39' W 094°58'2 6.6
2017-Dec-16 20:30N 29°36' W 094°57'3 6.6
2017-Dec-16 20:00N 29°34' W 094°55'71 3.5
2017-Dec-15 23:31N 30°04' W 093°41'0 5.4
2017-Dec-15 23:27N 30°04' W 093°40'2 5.1
2017-Dec-15 23:00N 30°04' W 093°38'3 5.0
2017-Dec-15 22:30N 30°04' W 093°35'2 4.8
2017-Dec-15 22:00N 30°04' W 093°32'2 5.0
2017-Dec-15 21:30N 30°04' W 093°29'3 5.1
2017-Dec-15 21:00N 30°04' W 093°26'3 5.3
2017-Dec-15 20:30N 30°04' W 093°23'2 3.8
2017-Dec-15 20:00N 30°04' W 093°21'2 3.1
2017-Dec-15 19:30N 30°05' W 093°20'3 5.5
2017-Dec-15 19:00N 30°08' W 093°20'3 5.7
2017-Dec-15 18:30N 30°11' W 093°19'3 6.2
2017-Dec-15 18:00N 30°12' W 093°16'2 3.2
2017-Dec-15 17:31N 30°14' W 093°16'0 0.4
2017-Dec-15 17:00N 30°14' W 093°15'0 0.0
2017-Dec-15 16:30N 30°14' W 093°15'0 0.0
2017-Dec-15 16:00N 30°14' W 093°15'0 0.0
2017-Dec-15 15:30N 30°14' W 093°15'0 0.0
2017-Dec-15 15:00N 30°14' W 093°15'0 0.0
2017-Dec-15 14:30N 30°14' W 093°15'0 0.0
2017-Dec-15 14:00N 30°14' W 093°15'0 0.0
2017-Dec-15 13:30N 30°14' W 093°15'0 0.0
2017-Dec-15 13:00N 30°14' W 093°15'0 0.0
2017-Dec-15 12:30N 30°14' W 093°15'0 0.0
2017-Dec-15 12:00N 30°14' W 093°15'0 0.0
2017-Dec-15 11:30N 30°14' W 093°15'0 0.0
2017-Dec-15 11:00N 30°14' W 093°15'0 0.0
2017-Dec-15 10:30N 30°14' W 093°15'0 0.0
2017-Dec-15 10:00N 30°14' W 093°15'0 0.0
2017-Dec-15 09:30N 30°14' W 093°15'0 0.0
2017-Dec-15 09:00N 30°14' W 093°15'0 0.0
2017-Dec-15 08:30N 30°14' W 093°15'0 0.0
2017-Dec-15 08:00N 30°14' W 093°15'0 0.0
2017-Dec-15 07:30N 30°14' W 093°15'0 0.0
2017-Dec-15 07:00N 30°14' W 093°15'0 0.0
2017-Dec-15 06:30N 30°14' W 093°15'0 0.0
2017-Dec-15 06:00N 30°14' W 093°15'0 0.0
2017-Dec-15 05:30N 30°14' W 093°15'0 0.0
2017-Dec-15 05:00N 30°14' W 093°15'0 0.0
2017-Dec-15 04:30N 30°14' W 093°15'0 0.0
2017-Dec-15 04:00N 30°14' W 093°15'0 0.0
2017-Dec-15 02:30N 30°14' W 093°15'0 0.0
2017-Dec-15 01:00N 30°14' W 093°15'0 0.1
2017-Dec-15 00:30N 30°14' W 093°15'11 1.8
2017-Dec-14 18:28N 30°04' W 093°21'0 0.0
2017-Dec-14 18:00N 30°04' W 093°21'0 0.0
2017-Dec-14 17:30N 30°04' W 093°21'1 1.9
2017-Dec-14 17:00N 30°04' W 093°21'2 3.4
2017-Dec-14 16:30N 30°04' W 093°23'2 4.8
2017-Dec-14 16:00N 30°04' W 093°26'5 4.7
2017-Dec-14 14:59N 30°04' W 093°32'4 4.9
2017-Dec-14 14:09N 30°04' W 093°36'1 4.8
2017-Dec-14 14:00N 30°04' W 093°37'3 4.8
2017-Dec-14 13:22N 30°04' W 093°41'2 4.9
2017-Dec-14 12:59N 30°03' W 093°43'1 2.8
2017-Dec-14 12:29N 30°02' W 093°44'2 2.0
2017-Dec-14 11:21N 30°01' W 093°46'9 4.3
2017-Dec-14 09:23N 29°55' W 093°53'57 4.1
2017-Dec-13 19:29N 29°29' W 094°52'2 5.1
2017-Dec-13 19:00N 29°31' W 094°53'3 5.5
2017-Dec-13 18:30N 29°33' W 094°55'3 5.8
2017-Dec-13 18:00N 29°36' W 094°57'3 5.8
2017-Dec-13 17:30N 29°38' W 094°58'3 6.1
2017-Dec-13 17:00N 29°41' W 094°59'3 5.5
2017-Dec-13 16:29N 29°44' W 095°01'4 1.9
2017-Dec-13 14:13N 29°47' W 095°04'0 0.2
2017-Dec-13 14:00N 29°47' W 095°04'0 0.0
2017-Dec-13 12:54N 29°47' W 095°04'1 2.8
2017-Dec-13 12:29N 29°46' W 095°05'1 0.2
2017-Dec-13 07:21N 29°45' W 095°04'3 6.3
2017-Dec-13 06:56N 29°44' W 095°02'0 0.4
2017-Dec-13 06:30N 29°44' W 095°02'4 5.2
2017-Dec-13 05:45N 29°46' W 095°05'1 0.1
2017-Dec-12 10:37N 29°46' W 095°07'0 1.2
2017-Dec-12 10:26N 29°46' W 095°07'0 0.0
2017-Dec-12 09:59N 29°46' W 095°07'0 0.0
2017-Dec-12 08:19N 29°46' W 095°07'0 0.0
2017-Dec-12 07:05N 29°46' W 095°07'0 0.0
2017-Dec-12 06:57N 29°46' W 095°07'0 0.0
2017-Dec-12 06:13N 29°46' W 095°07'0 0.0
2017-Dec-12 05:58N 29°46' W 095°07'1 0.1
2017-Dec-11 20:52N 29°46' W 095°05'1 0.1
2017-Dec-11 16:10N 29°46' W 095°05'1 3.8
2017-Dec-11 15:57N 29°45' W 095°04'2 3.6
2017-Dec-11 15:21N 29°44' W 095°02'1 1.8
2017-Dec-11 14:58N 29°44' W 095°01'0 0.2
2017-Dec-11 14:23N 29°44' W 095°01'0 0.4
2017-Dec-11 14:00N 29°44' W 095°01'0 0.0
2017-Dec-11 13:30N 29°44' W 095°01'0 0.0
2017-Dec-11 13:00N 29°44' W 095°01'0 0.0
2017-Dec-11 12:30N 29°44' W 095°01'0 0.0
2017-Dec-11 12:00N 29°44' W 095°01'0 0.0
2017-Dec-11 11:30N 29°44' W 095°01'0 0.0
2017-Dec-11 10:59N 29°44' W 095°01'0 0.0
2017-Dec-11 10:30N 29°44' W 095°01'0 0.0
2017-Dec-11 10:00N 29°44' W 095°01'0 0.0
2017-Dec-11 09:30N 29°44' W 095°01'0 0.0
2017-Dec-11 09:00N 29°44' W 095°01'0 0.0
2017-Dec-11 08:30N 29°44' W 095°01'0 0.0
2017-Dec-11 08:00N 29°44' W 095°01'0 0.0
2017-Dec-11 07:30N 29°44' W 095°01'0 0.0
2017-Dec-11 07:00N 29°44' W 095°01'0 0.0
2017-Dec-11 06:30N 29°44' W 095°01'0 0.0
2017-Dec-11 06:00N 29°44' W 095°01'0 0.0
2017-Dec-11 05:30N 29°44' W 095°01'0 0.0
2017-Dec-11 05:00N 29°44' W 095°01'0 0.0
2017-Dec-11 04:30N 29°44' W 095°01'0 0.0
2017-Dec-11 04:00N 29°44' W 095°01'0 0.0
2017-Dec-11 03:28N 29°44' W 095°01'0 0.0
2017-Dec-11 02:47N 29°44' W 095°01'0 0.0
2017-Dec-11 02:30N 29°44' W 095°01'0 0.0
2017-Dec-11 02:00N 29°44' W 095°01'0 0.0
2017-Dec-11 01:23N 29°44' W 095°01'0 0.0
2017-Dec-11 01:00N 29°44' W 095°01'0 0.0
2017-Dec-11 00:28N 29°44' W 095°01'0 0.0
2017-Dec-11 00:00N 29°44' W 095°01'0 0.0
2017-Dec-10 23:30N 29°44' W 095°01'0 0.0
2017-Dec-10 23:00N 29°44' W 095°01'0 0.0
2017-Dec-10 22:30N 29°44' W 095°01'0 0.0
2017-Dec-10 22:00N 29°44' W 095°01'1 3.1
2017-Dec-10 21:30N 29°44' W 095°03'3 2.1
2017-Dec-10 20:12N 29°45' W 095°06'2 3.1
2017-Dec-10 19:42N 29°45' W 095°04'1 3.9
2017-Dec-10 19:30N 29°44' W 095°03'2 4.5
2017-Dec-10 19:00N 29°43' W 095°01'2 4.2
2017-Dec-10 18:29N 29°42' W 094°59'4 4.9
2017-Dec-10 17:45N 29°38' W 094°58'1 5.4
2017-Dec-10 17:30N 29°37' W 094°57'3 5.4
2017-Dec-10 17:00N 29°35' W 094°56'3 5.5
2017-Dec-10 16:30N 29°32' W 094°54'0 0.2
2017-Dec-10 16:00N 29°32' W 094°54'3 5.1
2017-Dec-10 15:30N 29°34' W 094°56'3 5.1
2017-Dec-10 15:00N 29°37' W 094°57'3 5.4
2017-Dec-10 14:30N 29°39' W 094°58'3 5.7
2017-Dec-10 14:00N 29°42' W 094°60'3 5.1
2017-Dec-10 13:30N 29°44' W 095°02'3 5.3
2017-Dec-10 13:00N 29°45' W 095°04'2 4.3
2017-Dec-10 12:30N 29°45' W 095°06'3 5.3
2017-Dec-10 12:00N 29°44' W 095°09'2 4.4
2017-Dec-10 11:30N 29°45' W 095°12'0 0.1
2017-Dec-10 10:59N 29°45' W 095°12'0 0.0
2017-Dec-10 10:30N 29°45' W 095°12'0 0.0
2017-Dec-10 10:00N 29°45' W 095°12'0 0.0
2017-Dec-10 09:30N 29°45' W 095°12'0 0.0
2017-Dec-10 09:00N 29°45' W 095°12'0 0.0
2017-Dec-10 08:30N 29°45' W 095°12'0 0.0
2017-Dec-10 08:00N 29°45' W 095°12'0 0.0
2017-Dec-10 07:30N 29°45' W 095°12'0 0.0
2017-Dec-10 07:00N 29°45' W 095°12'0 0.0
2017-Dec-10 06:30N 29°45' W 095°12'0 0.0
2017-Dec-10 06:00N 29°45' W 095°12'0 0.0
2017-Dec-10 05:30N 29°45' W 095°12'0 0.0
2017-Dec-10 05:00N 29°45' W 095°12'0 0.0
2017-Dec-10 04:30N 29°45' W 095°12'0 0.0
2017-Dec-10 04:00N 29°45' W 095°12'0 0.0
2017-Dec-10 03:30N 29°45' W 095°12'0 0.0
2017-Dec-10 02:58N 29°45' W 095°12'0 0.0
2017-Dec-10 02:30N 29°45' W 095°12'0 0.0
2017-Dec-10 02:00N 29°45' W 095°12'0 0.0
2017-Dec-10 01:30N 29°45' W 095°12'0 0.0
2017-Dec-10 01:00N 29°45' W 095°12'0 0.0
2017-Dec-10 00:30N 29°45' W 095°12'0 0.0
2017-Dec-10 00:00N 29°45' W 095°12'0 0.0
2017-Dec-09 23:30N 29°45' W 095°12'0 0.0
2017-Dec-09 23:00N 29°45' W 095°12'0 0.0
2017-Dec-09 22:30N 29°45' W 095°12'0 0.0
2017-Dec-09 22:00N 29°45' W 095°12'0 0.0
2017-Dec-09 21:30N 29°45' W 095°12'0 0.0
2017-Dec-09 21:00N 29°45' W 095°12'0 0.0
2017-Dec-09 20:30N 29°45' W 095°12'0 0.0
2017-Dec-09 19:59N 29°45' W 095°12'0 0.0
2017-Dec-09 19:30N 29°45' W 095°12'0 0.0
2017-Dec-09 19:00N 29°45' W 095°12'0 0.0
2017-Dec-09 18:30N 29°45' W 095°12'0 0.0
2017-Dec-09 18:00N 29°45' W 095°12'0 0.0
2017-Dec-09 17:30N 29°45' W 095°12'0 0.0
2017-Dec-09 17:00N 29°45' W 095°12'0 0.0
2017-Dec-09 16:30N 29°45' W 095°12'0 0.0
2017-Dec-09 15:56N 29°45' W 095°12'0 0.0
2017-Dec-09 15:19N 29°45' W 095°12'0 0.0
2017-Dec-09 14:58N 29°45' W 095°12'0 0.0
2017-Dec-09 14:30N 29°45' W 095°12'0 0.0
2017-Dec-09 14:00N 29°45' W 095°12'0 0.0
2017-Dec-09 13:30N 29°45' W 095°12'0 0.0
2017-Dec-09 12:59N 29°45' W 095°12'0 0.0
2017-Dec-09 12:30N 29°45' W 095°12'0 0.0
2017-Dec-09 12:00N 29°45' W 095°12'0 0.0
2017-Dec-09 11:30N 29°45' W 095°12'0 0.0
2017-Dec-09 11:00N 29°45' W 095°12'0 0.0
2017-Dec-09 10:30N 29°45' W 095°12'0 0.0
2017-Dec-09 10:00N 29°45' W 095°12'0 0.0
2017-Dec-09 09:30N 29°45' W 095°12'0 0.0
2017-Dec-09 09:00N 29°45' W 095°12'0 0.0
2017-Dec-09 08:30N 29°45' W 095°12'0 0.0
2017-Dec-09 08:00N 29°45' W 095°12'0 0.0
2017-Dec-09 07:30N 29°45' W 095°12'0 0.0
2017-Dec-09 07:00N 29°45' W 095°12'0 0.0
2017-Dec-09 06:30N 29°45' W 095°12'0 0.0
2017-Dec-09 06:00N 29°45' W 095°12'0 0.0
2017-Dec-09 05:30N 29°45' W 095°12'0 0.0
2017-Dec-09 05:00N 29°45' W 095°12'0 0.0
2017-Dec-09 04:30N 29°45' W 095°12'0 0.0
2017-Dec-09 04:00N 29°45' W 095°12'0 0.0
2017-Dec-09 03:30N 29°45' W 095°12'0 0.0
2017-Dec-09 03:00N 29°45' W 095°12'0 0.0
2017-Dec-09 02:29N 29°45' W 095°12'0 0.0
2017-Dec-09 02:00N 29°45' W 095°12'0 0.0
2017-Dec-09 01:30N 29°45' W 095°12'0 0.6
2017-Dec-09 00:59N 29°45' W 095°12'1 1.5
2017-Dec-09 00:30N 29°45' W 095°11'6 4.1
2017-Dec-08 23:04N 29°45' W 095°04'0 4.6
2017-Dec-08 23:00N 29°45' W 095°04'2 4.1
2017-Dec-08 22:29N 29°44' W 095°02'2 4.0
2017-Dec-08 22:00N 29°42' W 095°01'2 4.3
2017-Dec-08 21:28N 29°41' W 094°59'2 4.6
2017-Dec-08 21:00N 29°39' W 094°58'2 4.8
2017-Dec-08 20:29N 29°36' W 094°57'3 5.4
2017-Dec-08 20:00N 29°34' W 094°55'3 5.0
2017-Dec-08 19:29N 29°32' W 094°54'  
Track history (hours):
 
Tides and Currents Weather Stations Pressure Air Temp Water Temp Dewpoint Dewpoint Depression Visibility Wind Speed Wind Dir Waves Ship Positions

Sawyer William

Owner: Florida Marine, LLC, Mandeville, LA. More information available from US FCC via Universal Licensing System and Coast Guard Vessel Documentation Center.

Last reported at 2017-Dec-16 22:34 UTC. Time now 2017-Dec-17 02:46 UTC.
Position N 29°46' W 095°05'.

Length 27 m; draft 2.9 m.

Type: Other ship. MMSI: 367308990.

Date/timePositionNaut miles runAvg speedWind from/ knotsBaromVisibWave heightAir tempDewpointWater temp
2017-Dec-16 22:34N 29°46' W 095°05'1 6.3
2017-Dec-16 22:22N 29°45' W 095°04'3 4.8
2017-Dec-16 21:47N 29°43' W 095°01'2 5.6
2017-Dec-16 21:28N 29°42' W 094°60'4 6.5
2017-Dec-16 20:53N 29°39' W 094°58'2 6.6
2017-Dec-16 20:30N 29°36' W 094°57'3 6.6
2017-Dec-16 20:00N 29°34' W 094°55'71 3.5
2017-Dec-15 23:31N 30°04' W 093°41'0 5.4
2017-Dec-15 23:27N 30°04' W 093°40'2 5.1
2017-Dec-15 23:00N 30°04' W 093°38'3 5.0
2017-Dec-15 22:30N 30°04' W 093°35'2 4.8
2017-Dec-15 22:00N 30°04' W 093°32'2 5.0
2017-Dec-15 21:30N 30°04' W 093°29'3 5.1
2017-Dec-15 21:00N 30°04' W 093°26'3 5.3
2017-Dec-15 20:30N 30°04' W 093°23'2 3.8
2017-Dec-15 20:00N 30°04' W 093°21'2 3.1
2017-Dec-15 19:30N 30°05' W 093°20'3 5.5
2017-Dec-15 19:00N 30°08' W 093°20'3 5.7
2017-Dec-15 18:30N 30°11' W 093°19'3 6.2
2017-Dec-15 18:00N 30°12' W 093°16'2 3.2
2017-Dec-15 17:31N 30°14' W 093°16'0 0.4
2017-Dec-15 17:00N 30°14' W 093°15'0 0.0
2017-Dec-15 16:30N 30°14' W 093°15'0 0.0
2017-Dec-15 16:00N 30°14' W 093°15'0 0.0
2017-Dec-15 15:30N 30°14' W 093°15'0 0.0
2017-Dec-15 15:00N 30°14' W 093°15'0 0.0
2017-Dec-15 14:30N 30°14' W 093°15'0 0.0
2017-Dec-15 14:00N 30°14' W 093°15'0 0.0
2017-Dec-15 13:30N 30°14' W 093°15'0 0.0
2017-Dec-15 13:00N 30°14' W 093°15'0 0.0
2017-Dec-15 12:30N 30°14' W 093°15'0 0.0
2017-Dec-15 12:00N 30°14' W 093°15'0 0.0
2017-Dec-15 11:30N 30°14' W 093°15'0 0.0
2017-Dec-15 11:00N 30°14' W 093°15'0 0.0
2017-Dec-15 10:30N 30°14' W 093°15'0 0.0
2017-Dec-15 10:00N 30°14' W 093°15'0 0.0
2017-Dec-15 09:30N 30°14' W 093°15'0 0.0
2017-Dec-15 09:00N 30°14' W 093°15'0 0.0
2017-Dec-15 08:30N 30°14' W 093°15'0 0.0
2017-Dec-15 08:00N 30°14' W 093°15'0 0.0
2017-Dec-15 07:30N 30°14' W 093°15'0 0.0
2017-Dec-15 07:00N 30°14' W 093°15'0 0.0
2017-Dec-15 06:30N 30°14' W 093°15'0 0.0
2017-Dec-15 06:00N 30°14' W 093°15'0 0.0
2017-Dec-15 05:30N 30°14' W 093°15'0 0.0
2017-Dec-15 05:00N 30°14' W 093°15'0 0.0
2017-Dec-15 04:30N 30°14' W 093°15'0 0.0
2017-Dec-15 04:00N 30°14' W 093°15'0 0.0
2017-Dec-15 02:30N 30°14' W 093°15'0 0.0
2017-Dec-15 01:00N 30°14' W 093°15'0 0.1
2017-Dec-15 00:30N 30°14' W 093°15'11 1.8
2017-Dec-14 18:28N 30°04' W 093°21'0 0.0
2017-Dec-14 18:00N 30°04' W 093°21'0 0.0
2017-Dec-14 17:30N 30°04' W 093°21'1 1.9
2017-Dec-14 17:00N 30°04' W 093°21'2 3.4
2017-Dec-14 16:30N 30°04' W 093°23'2 4.8
2017-Dec-14 16:00N 30°04' W 093°26'5 4.7
2017-Dec-14 14:59N 30°04' W 093°32'4 4.9
2017-Dec-14 14:09N 30°04' W 093°36'1 4.8
2017-Dec-14 14:00N 30°04' W 093°37'3 4.8
2017-Dec-14 13:22N 30°04' W 093°41'2 4.9
2017-Dec-14 12:59N 30°03' W 093°43'1 2.8
2017-Dec-14 12:29N 30°02' W 093°44'2 2.0
2017-Dec-14 11:21N 30°01' W 093°46'9 4.3
2017-Dec-14 09:23N 29°55' W 093°53'57 4.1
2017-Dec-13 19:29N 29°29' W 094°52'2 5.1
2017-Dec-13 19:00N 29°31' W 094°53'3 5.5
2017-Dec-13 18:30N 29°33' W 094°55'3 5.8
2017-Dec-13 18:00N 29°36' W 094°57'3 5.8
2017-Dec-13 17:30N 29°38' W 094°58'3 6.1
2017-Dec-13 17:00N 29°41' W 094°59'3 5.5
2017-Dec-13 16:29N 29°44' W 095°01'4 1.9
2017-Dec-13 14:13N 29°47' W 095°04'0 0.2
2017-Dec-13 14:00N 29°47' W 095°04'0 0.0
2017-Dec-13 12:54N 29°47' W 095°04'1 2.8
2017-Dec-13 12:29N 29°46' W 095°05'1 0.2
2017-Dec-13 07:21N 29°45' W 095°04'3 6.3
2017-Dec-13 06:56N 29°44' W 095°02'0 0.4
2017-Dec-13 06:30N 29°44' W 095°02'4 5.2
2017-Dec-13 05:45N 29°46' W 095°05'1 0.1
2017-Dec-12 10:37N 29°46' W 095°07'0 1.2
2017-Dec-12 10:26N 29°46' W 095°07'0 0.0
2017-Dec-12 09:59N 29°46' W 095°07'0 0.0
2017-Dec-12 08:19N 29°46' W 095°07'0 0.0
2017-Dec-12 07:05N 29°46' W 095°07'0 0.0
2017-Dec-12 06:57N 29°46' W 095°07'0 0.0
2017-Dec-12 06:13N 29°46' W 095°07'0 0.0
2017-Dec-12 05:58N 29°46' W 095°07'1 0.1
2017-Dec-11 20:52N 29°46' W 095°05'1 0.1
2017-Dec-11 16:10N 29°46' W 095°05'1 3.8
2017-Dec-11 15:57N 29°45' W 095°04'2 3.6
2017-Dec-11 15:21N 29°44' W 095°02'1 1.8
2017-Dec-11 14:58N 29°44' W 095°01'0 0.2
2017-Dec-11 14:23N 29°44' W 095°01'0 0.4
2017-Dec-11 14:00N 29°44' W 095°01'0 0.0
2017-Dec-11 13:30N 29°44' W 095°01'0 0.0
2017-Dec-11 13:00N 29°44' W 095°01'0 0.0
2017-Dec-11 12:30N 29°44' W 095°01'0 0.0
2017-Dec-11 12:00N 29°44' W 095°01'0 0.0
2017-Dec-11 11:30N 29°44' W 095°01'0 0.0
2017-Dec-11 10:59N 29°44' W 095°01'0 0.0
2017-Dec-11 10:30N 29°44' W 095°01'0 0.0
2017-Dec-11 10:00N 29°44' W 095°01'0 0.0
2017-Dec-11 09:30N 29°44' W 095°01'0 0.0
2017-Dec-11 09:00N 29°44' W 095°01'0 0.0
2017-Dec-11 08:30N 29°44' W 095°01'0 0.0
2017-Dec-11 08:00N 29°44' W 095°01'0 0.0
2017-Dec-11 07:30N 29°44' W 095°01'0 0.0
2017-Dec-11 07:00N 29°44' W 095°01'0 0.0
2017-Dec-11 06:30N 29°44' W 095°01'0 0.0
2017-Dec-11 06:00N 29°44' W 095°01'0 0.0
2017-Dec-11 05:30N 29°44' W 095°01'0 0.0
2017-Dec-11 05:00N 29°44' W 095°01'0 0.0
2017-Dec-11 04:30N 29°44' W 095°01'0 0.0
2017-Dec-11 04:00N 29°44' W 095°01'0 0.0
2017-Dec-11 03:28N 29°44' W 095°01'0 0.0
2017-Dec-11 02:47N 29°44' W 095°01'0 0.0
2017-Dec-11 02:30N 29°44' W 095°01'0 0.0
2017-Dec-11 02:00N 29°44' W 095°01'0 0.0
2017-Dec-11 01:23N 29°44' W 095°01'0 0.0
2017-Dec-11 01:00N 29°44' W 095°01'0 0.0
2017-Dec-11 00:28N 29°44' W 095°01'0 0.0
2017-Dec-11 00:00N 29°44' W 095°01'0 0.0
2017-Dec-10 23:30N 29°44' W 095°01'0 0.0
2017-Dec-10 23:00N 29°44' W 095°01'0 0.0
2017-Dec-10 22:30N 29°44' W 095°01'0 0.0
2017-Dec-10 22:00N 29°44' W 095°01'1 3.1
2017-Dec-10 21:30N 29°44' W 095°03'3 2.1
2017-Dec-10 20:12N 29°45' W 095°06'2 3.1
2017-Dec-10 19:42N 29°45' W 095°04'1 3.9
2017-Dec-10 19:30N 29°44' W 095°03'2 4.5
2017-Dec-10 19:00N 29°43' W 095°01'2 4.2
2017-Dec-10 18:29N 29°42' W 094°59'4 4.9
2017-Dec-10 17:45N 29°38' W 094°58'1 5.4
2017-Dec-10 17:30N 29°37' W 094°57'3 5.4
2017-Dec-10 17:00N 29°35' W 094°56'3 5.5
2017-Dec-10 16:30N 29°32' W 094°54'0 0.2
2017-Dec-10 16:00N 29°32' W 094°54'3 5.1
2017-Dec-10 15:30N 29°34' W 094°56'3 5.1
2017-Dec-10 15:00N 29°37' W 094°57'3 5.4
2017-Dec-10 14:30N 29°39' W 094°58'3 5.7
2017-Dec-10 14:00N 29°42' W 094°60'3 5.1
2017-Dec-10 13:30N 29°44' W 095°02'3 5.3
2017-Dec-10 13:00N 29°45' W 095°04'2 4.3
2017-Dec-10 12:30N 29°45' W 095°06'3 5.3
2017-Dec-10 12:00N 29°44' W 095°09'2 4.4
2017-Dec-10 11:30N 29°45' W 095°12'0 0.1
2017-Dec-10 10:59N 29°45' W 095°12'0 0.0
2017-Dec-10 10:30N 29°45' W 095°12'0 0.0
2017-Dec-10 10:00N 29°45' W 095°12'0 0.0
2017-Dec-10 09:30N 29°45' W 095°12'0 0.0
2017-Dec-10 09:00N 29°45' W 095°12'0 0.0
2017-Dec-10 08:30N 29°45' W 095°12'0 0.0
2017-Dec-10 08:00N 29°45' W 095°12'0 0.0
2017-Dec-10 07:30N 29°45' W 095°12'0 0.0
2017-Dec-10 07:00N 29°45' W 095°12'0 0.0
2017-Dec-10 06:30N 29°45' W 095°12'0 0.0
2017-Dec-10 06:00N 29°45' W 095°12'0 0.0
2017-Dec-10 05:30N 29°45' W 095°12'0 0.0
2017-Dec-10 05:00N 29°45' W 095°12'0 0.0
2017-Dec-10 04:30N 29°45' W 095°12'0 0.0
2017-Dec-10 04:00N 29°45' W 095°12'0 0.0
2017-Dec-10 03:30N 29°45' W 095°12'0 0.0
2017-Dec-10 02:58N 29°45' W 095°12'0 0.0
2017-Dec-10 02:30N 29°45' W 095°12'0 0.0
2017-Dec-10 02:00N 29°45' W 095°12'0 0.0
2017-Dec-10 01:30N 29°45' W 095°12'0 0.0
2017-Dec-10 01:00N 29°45' W 095°12'0 0.0
2017-Dec-10 00:30N 29°45' W 095°12'0 0.0
2017-Dec-10 00:00N 29°45' W 095°12'0 0.0
2017-Dec-09 23:30N 29°45' W 095°12'0 0.0
2017-Dec-09 23:00N 29°45' W 095°12'0 0.0
2017-Dec-09 22:30N 29°45' W 095°12'0 0.0
2017-Dec-09 22:00N 29°45' W 095°12'0 0.0
2017-Dec-09 21:30N 29°45' W 095°12'0 0.0
2017-Dec-09 21:00N 29°45' W 095°12'0 0.0
2017-Dec-09 20:30N 29°45' W 095°12'0 0.0
2017-Dec-09 19:59N 29°45' W 095°12'0 0.0
2017-Dec-09 19:30N 29°45' W 095°12'0 0.0
2017-Dec-09 19:00N 29°45' W 095°12'0 0.0
2017-Dec-09 18:30N 29°45' W 095°12'0 0.0
2017-Dec-09 18:00N 29°45' W 095°12'0 0.0
2017-Dec-09 17:30N 29°45' W 095°12'0 0.0
2017-Dec-09 17:00N 29°45' W 095°12'0 0.0
2017-Dec-09 16:30N 29°45' W 095°12'0 0.0
2017-Dec-09 15:56N 29°45' W 095°12'0 0.0
2017-Dec-09 15:19N 29°45' W 095°12'0 0.0
2017-Dec-09 14:58N 29°45' W 095°12'0 0.0
2017-Dec-09 14:30N 29°45' W 095°12'0 0.0
2017-Dec-09 14:00N 29°45' W 095°12'0 0.0
2017-Dec-09 13:30N 29°45' W 095°12'0 0.0
2017-Dec-09 12:59N 29°45' W 095°12'0 0.0
2017-Dec-09 12:30N 29°45' W 095°12'0 0.0
2017-Dec-09 12:00N 29°45' W 095°12'0 0.0
2017-Dec-09 11:30N 29°45' W 095°12'0 0.0
2017-Dec-09 11:00N 29°45' W 095°12'0 0.0
2017-Dec-09 10:30N 29°45' W 095°12'0 0.0
2017-Dec-09 10:00N 29°45' W 095°12'0 0.0
2017-Dec-09 09:30N 29°45' W 095°12'0 0.0
2017-Dec-09 09:00N 29°45' W 095°12'0 0.0
2017-Dec-09 08:30N 29°45' W 095°12'0 0.0
2017-Dec-09 08:00N 29°45' W 095°12'0 0.0
2017-Dec-09 07:30N 29°45' W 095°12'0 0.0
2017-Dec-09 07:00N 29°45' W 095°12'0 0.0
2017-Dec-09 06:30N 29°45' W 095°12'0 0.0
2017-Dec-09 06:00N 29°45' W 095°12'0 0.0
2017-Dec-09 05:30N 29°45' W 095°12'0 0.0
2017-Dec-09 05:00N 29°45' W 095°12'0 0.0
2017-Dec-09 04:30N 29°45' W 095°12'0 0.0
2017-Dec-09 04:00N 29°45' W 095°12'0 0.0
2017-Dec-09 03:30N 29°45' W 095°12'0 0.0
2017-Dec-09 03:00N 29°45' W 095°12'0 0.0
2017-Dec-09 02:29N 29°45' W 095°12'0 0.0
2017-Dec-09 02:00N 29°45' W 095°12'0 0.0
2017-Dec-09 01:30N 29°45' W 095°12'0 0.6
2017-Dec-09 00:59N 29°45' W 095°12'1 1.5
2017-Dec-09 00:30N 29°45' W 095°11'6 4.1
2017-Dec-08 23:04N 29°45' W 095°04'0 4.6
2017-Dec-08 23:00N 29°45' W 095°04'2 4.1
2017-Dec-08 22:29N 29°44' W 095°02'2 4.0
2017-Dec-08 22:00N 29°42' W 095°01'2 4.3
2017-Dec-08 21:28N 29°41' W 094°59'2 4.6
2017-Dec-08 21:00N 29°39' W 094°58'2 4.8
2017-Dec-08 20:29N 29°36' W 094°57'3 5.4
2017-Dec-08 20:00N 29°34' W 094°55'3 5.0
2017-Dec-08 19:29N 29°32' W 094°54'  

Dump ship's entire track history